Time;durP1;ratioP1;P1;durP2;ratioP2;P2;SDS_P1;SDS_P2;PMS_P1;PMS_P2;Temp;Humidity;BMP_temperature;BMP_pressure;BME280_temperature;BME280_humidity;BME280_pressure;Samples;Min_cycle;Max_cycle;Signal;HPM_P1;HPM_P2
2023/12/30 00:00:18;;;;;;;19.77;17.98;;;;;;;;;;5048875;28;20033;-46
2023/12/30 00:02:44;;;;;;;20.05;18.25;;;;;;;;;;5060766;28;20033;-44
2023/12/30 00:05:10;;;;;;;19.05;17.25;;;;;;;;;;5056968;28;20077;-51
2023/12/30 00:07:36;;;;;;;17.60;15.90;;;;;;;;;;5057967;28;20086;-48
2023/12/30 00:10:02;;;;;;;19.80;18.00;;;;;;;;;;5053269;28;20208;-49
2023/12/30 00:12:28;;;;;;;19.40;17.60;;;;;;;;;;5063108;28;20134;-46
2023/12/30 00:14:54;;;;;;;19.02;17.23;;;;;;;;;;5067574;28;20385;-46
2023/12/30 00:17:20;;;;;;;18.27;16.48;;;;;;;;;;5067824;28;20070;-51
2023/12/30 00:19:46;;;;;;;16.80;15.10;;;;;;;;;;5067509;28;20036;-54
2023/12/30 00:22:12;;;;;;;15.20;13.55;;;;;;;;;;5067215;28;20032;-43
2023/12/30 00:24:41;;;;;;;14.90;12.68;;;;;;;;;;5067301;28;20025;-47
2023/12/30 00:27:07;;;;;;;;;;;;;;;;;;5067952;28;20589;-47
2023/12/30 00:29:33;;;;;;;14.90;12.50;;;;;;;;;;5067372;28;19912;-45
2023/12/30 00:32:02;;;;;;;14.90;12.80;;;;;;;;;;5066004;28;20067;-45
2023/12/30 00:34:28;;;;;;;15.00;12.73;;;;;;;;;;5067353;28;20028;-47
2023/12/30 00:36:54;;;;;;;14.95;12.90;;;;;;;;;;5067415;28;20039;-50
2023/12/30 00:39:20;;;;;;;14.90;12.95;;;;;;;;;;5067481;28;20029;-49
2023/12/30 00:41:46;;;;;;;14.70;12.13;;;;;;;;;;5052492;28;20033;-50
2023/12/30 00:44:12;;;;;;;14.65;12.10;;;;;;;;;;5048764;28;20036;-50
2023/12/30 00:46:38;;;;;;;14.90;12.52;;;;;;;;;;5051750;23;20136;-58
2023/12/30 00:49:04;;;;;;;14.98;12.88;;;;;;;;;;5027701;28;20056;-55
2023/12/30 00:51:30;;;;;;;15.77;14.07;;;;;;;;;;5027681;28;20049;-57
2023/12/30 00:53:56;;;;;;;16.30;14.60;;;;;;;;;;5028539;28;20025;-56
2023/12/30 00:56:22;;;;;;;17.00;15.30;;;;;;;;;;5027699;28;20026;-58
2023/12/30 00:58:48;;;;;;;16.67;14.98;;;;;;;;;;5028041;28;20557;-57
2023/12/30 01:01:14;;;;;;;15.57;13.88;;;;;;;;;;5027883;28;20037;-57
2023/12/30 01:03:40;;;;;;;14.90;12.60;;;;;;;;;;5028599;28;20037;-57
2023/12/30 01:06:06;;;;;;;14.82;12.40;;;;;;;;;;5028667;28;20036;-62
2023/12/30 01:08:32;;;;;;;14.90;12.65;;;;;;;;;;5028642;28;20056;-59
2023/12/30 01:10:58;;;;;;;14.70;12.00;;;;;;;;;;5028336;28;20025;-56
2023/12/30 01:13:24;;;;;;;14.80;12.38;;;;;;;;;;5030643;28;20021;-58
2023/12/30 01:15:50;;;;;;;14.57;11.48;;;;;;;;;;5032487;28;20040;-58
2023/12/30 01:18:16;;;;;;;14.45;11.27;;;;;;;;;;5042112;28;20030;-58
2023/12/30 01:20:42;;;;;;;14.35;11.23;;;;;;;;;;5052529;28;20108;-58
2023/12/30 01:23:08;;;;;;;14.38;11.15;;;;;;;;;;5052808;28;20471;-59
2023/12/30 01:25:37;;;;;;;14.38;11.00;;;;;;;;;;5052586;28;20033;-57
2023/12/30 01:28:03;;;;;;;14.32;11.00;;;;;;;;;;5052530;28;20021;-59
2023/12/30 01:30:29;;;;;;;14.27;10.85;;;;;;;;;;5052473;28;20025;-59
2023/12/30 01:32:55;;;;;;;14.20;10.52;;;;;;;;;;5052180;28;20382;-59
2023/12/30 01:35:21;;;;;;;14.27;10.60;;;;;;;;;;5052278;28;20053;-59
2023/12/30 01:37:47;;;;;;;14.05;10.23;;;;;;;;;;5052597;28;20068;-59
2023/12/30 01:40:14;;;;;;;13.90;9.70;;;;;;;;;;5052421;28;20117;-58
2023/12/30 01:42:40;;;;;;;13.93;9.70;;;;;;;;;;5052378;28;20025;-57
2023/12/30 01:45:07;;;;;;;13.77;9.15;;;;;;;;;;5052083;28;20059;-58
2023/12/30 01:47:35;;;;;;;13.63;8.90;;;;;;;;;;5052236;28;20126;-58
2023/12/30 01:50:01;;;;;;;13.90;8.75;;;;;;;;;;5052234;28;20065;-58
2023/12/30 01:52:27;;;;;;;13.02;8.02;;;;;;;;;;5052245;28;20368;-58
2023/12/30 01:54:53;;;;;;;11.70;6.80;;;;;;;;;;5052294;28;20027;-56
2023/12/30 01:57:19;;;;;;;10.73;6.30;;;;;;;;;;5052527;28;20040;-58
2023/12/30 01:59:45;;;;;;;10.57;6.20;;;;;;;;;;5051241;28;20020;-59
2023/12/30 02:02:11;;;;;;;9.65;5.63;;;;;;;;;;5050729;28;20055;-58
2023/12/30 02:04:38;;;;;;;9.85;5.80;;;;;;;;;;5038177;28;20523;-56
2023/12/30 02:07:04;;;;;;;9.32;5.50;;;;;;;;;;5030682;28;20026;-57
2023/12/30 02:09:30;;;;;;;9.60;5.68;;;;;;;;;;5031792;28;20026;-59
2023/12/30 02:11:57;;;;;;;9.45;5.60;;;;;;;;;;5031784;28;20033;-55
2023/12/30 02:14:27;;;;;;;8.95;5.28;;;;;;;;;;5031756;28;20029;-57
2023/12/30 02:16:53;;;;;;;9.27;5.47;;;;;;;;;;5030388;28;20025;-57
2023/12/30 02:19:19;;;;;;;9.27;5.50;;;;;;;;;;5032079;28;20472;-57
2023/12/30 02:21:45;;;;;;;15.65;6.38;;;;;;;;;;5031623;28;20067;-58
2023/12/30 02:24:11;;;;;;;9.45;5.55;;;;;;;;;;5030935;28;20037;-58
2023/12/30 02:26:39;;;;;;;9.57;5.55;;;;;;;;;;5030680;28;20026;-57
2023/12/30 02:29:05;;;;;;;8.80;5.20;;;;;;;;;;5031862;28;20091;-58
2023/12/30 02:31:31;;;;;;;9.00;5.40;;;;;;;;;;5031124;28;20036;-56
2023/12/30 02:33:56;;;;;;;9.57;6.38;;;;;;;;;;5031527;28;20029;-56
2023/12/30 02:36:22;;;;;;;10.20;6.13;;;;;;;;;;5031596;28;20026;-52
2023/12/30 02:38:48;;;;;;;8.35;4.95;;;;;;;;;;5030290;28;20460;-58
2023/12/30 02:41:14;;;;;;;8.80;5.10;;;;;;;;;;5030843;28;20033;-58
2023/12/30 02:43:47;;;;;;;8.57;5.10;;;;;;;;;;5031588;28;20061;-58
2023/12/30 02:46:13;;;;;;;9.30;5.38;;;;;;;;;;5031050;28;20034;-58
2023/12/30 02:48:39;;;;;;;8.50;5.05;;;;;;;;;;5031222;28;20368;-58
2023/12/30 02:51:05;;;;;;;20.60;5.60;;;;;;;;;;5030993;28;20036;-58
2023/12/30 02:53:31;;;;;;;8.60;5.10;;;;;;;;;;5039676;28;20040;-58
2023/12/30 02:55:57;;;;;;;8.55;5.10;;;;;;;;;;5045192;28;20479;-58
2023/12/30 02:58:23;;;;;;;8.38;4.93;;;;;;;;;;5051351;28;20025;-59
2023/12/30 03:00:49;;;;;;;9.75;5.30;;;;;;;;;;5049813;28;20025;-56
2023/12/30 03:03:14;;;;;;;8.00;4.70;;;;;;;;;;5051154;28;20033;-58
2023/12/30 03:05:41;;;;;;;7.35;4.40;;;;;;;;;;5051460;28;20025;-57
2023/12/30 03:08:07;;;;;;;8.00;4.75;;;;;;;;;;5051367;28;20029;-57
2023/12/30 03:10:33;;;;;;;8.30;4.70;;;;;;;;;;5051632;28;20108;-58
2023/12/30 03:12:58;;;;;;;7.72;4.57;;;;;;;;;;5050058;28;20076;-59
2023/12/30 03:15:24;;;;;;;15.02;5.28;;;;;;;;;;5051237;28;20029;-58
2023/12/30 03:17:50;;;;;;;7.53;4.50;;;;;;;;;;5051314;28;20430;-56
2023/12/30 03:20:16;;;;;;;7.45;4.47;;;;;;;;;;5051200;28;20104;-55
2023/12/30 03:22:42;;;;;;;7.47;4.40;;;;;;;;;;5051064;28;20655;-57
2023/12/30 03:25:08;;;;;;;7.35;4.35;;;;;;;;;;5051053;28;20106;-59
2023/12/30 03:27:34;;;;;;;7.55;4.47;;;;;;;;;;5050869;28;20152;-56
2023/12/30 03:30:00;;;;;;;7.40;4.40;;;;;;;;;;5050981;28;20108;-58
2023/12/30 03:32:28;;;;;;;7.50;4.43;;;;;;;;;;5049192;28;20017;-57
2023/12/30 03:34:54;;;;;;;7.18;4.30;;;;;;;;;;5050449;28;20136;-58
2023/12/30 03:37:20;;;;;;;7.30;4.35;;;;;;;;;;5048074;28;20560;-57
2023/12/30 03:39:46;;;;;;;7.38;4.32;;;;;;;;;;5050816;28;20027;-59
2023/12/30 03:42:12;;;;;;;7.30;4.30;;;;;;;;;;5041489;28;20040;-59
2023/12/30 03:44:38;;;;;;;7.88;4.60;;;;;;;;;;5028900;28;20499;-53
2023/12/30 03:47:04;;;;;;;7.53;4.50;;;;;;;;;;5029319;28;20049;-58
2023/12/30 03:49:30;;;;;;;8.45;4.95;;;;;;;;;;5030571;28;20147;-59
2023/12/30 03:51:56;;;;;;;8.00;4.80;;;;;;;;;;5030125;28;20096;-58
2023/12/30 03:54:22;;;;;;;7.50;4.40;;;;;;;;;;5030426;28;20558;-56
2023/12/30 03:56:48;;;;;;;16.73;5.25;;;;;;;;;;5028931;28;20029;-57
2023/12/30 03:59:14;;;;;;;10.43;5.07;;;;;;;;;;5030780;28;20032;-56
2023/12/30 04:01:44;;;;;;;7.75;4.57;;;;;;;;;;5029957;28;20022;-55
2023/12/30 04:04:10;;;;;;;8.48;4.70;;;;;;;;;;5029021;28;20128;-56
2023/12/30 04:06:36;;;;;;;11.05;4.93;;;;;;;;;;5028844;28;20406;-58
2023/12/30 04:09:02;;;;;;;9.65;5.07;;;;;;;;;;5029729;28;20029;-56
2023/12/30 04:11:28;;;;;;;7.60;4.50;;;;;;;;;;5029726;28;20017;-59
2023/12/30 04:13:54;;;;;;;9.05;5.25;;;;;;;;;;5030411;28;20495;-57
2023/12/30 04:16:20;;;;;;;7.68;4.55;;;;;;;;;;5030206;28;20026;-58
2023/12/30 04:18:46;;;;;;;8.32;5.18;;;;;;;;;;5030275;28;20514;-57
2023/12/30 04:21:12;;;;;;;7.40;4.40;;;;;;;;;;5030184;28;20026;-58
2023/12/30 04:23:38;;;;;;;9.27;5.65;;;;;;;;;;5029028;28;20021;-55
2023/12/30 04:26:04;;;;;;;7.65;4.60;;;;;;;;;;5030324;28;20095;-58
2023/12/30 04:28:30;;;;;;;7.60;4.40;;;;;;;;;;5030293;28;20061;-56
2023/12/30 04:30:56;;;;;;;7.00;4.18;;;;;;;;;;5030353;28;20021;-57
2023/12/30 04:33:22;;;;;;;7.15;4.30;;;;;;;;;;5030196;28;20543;-55
2023/12/30 04:35:48;;;;;;;8.57;4.85;;;;;;;;;;5030601;28;20021;-57
2023/12/30 04:38:15;;;;;;;7.10;4.20;;;;;;;;;;5030111;28;20445;-57
2023/12/30 04:40:41;;;;;;;11.73;4.82;;;;;;;;;;5030381;28;20033;-58
2023/12/30 04:43:07;;;;;;;7.20;4.30;;;;;;;;;;5036804;28;20067;-58
2023/12/30 04:45:33;;;;;;;8.40;5.47;;;;;;;;;;5032373;28;20091;-57
2023/12/30 04:47:59;;;;;;;8.10;5.85;;;;;;;;;;5049690;28;20029;-56
2023/12/30 04:50:25;;;;;;;7.10;4.20;;;;;;;;;;5049726;28;20104;-57
2023/12/30 04:52:51;;;;;;;19.80;5.15;;;;;;;;;;5050375;28;20033;-55
2023/12/30 04:55:17;;;;;;;8.35;4.95;;;;;;;;;;5049809;28;20090;-59
2023/12/30 04:57:47;;;;;;;21.27;6.57;;;;;;;;;;5049772;28;20084;-58
2023/12/30 05:00:13;;;;;;;8.15;4.72;;;;;;;;;;5049433;28;20099;-56
2023/12/30 05:02:39;;;;;;;6.95;4.18;;;;;;;;;;5049914;28;20098;-57
2023/12/30 05:05:06;;;;;;;7.53;4.40;;;;;;;;;;5049236;28;20021;-56
2023/12/30 05:07:32;;;;;;;7.65;4.40;;;;;;;;;;5049764;28;20053;-56
2023/12/30 05:09:58;;;;;;;16.63;5.68;;;;;;;;;;5048642;28;20021;-58
2023/12/30 05:12:24;;;;;;;8.30;4.55;;;;;;;;;;5049736;28;20606;-57
2023/12/30 05:14:50;;;;;;;6.90;4.10;;;;;;;;;;5049156;28;20409;-55
2023/12/30 05:17:15;;;;;;;7.78;4.60;;;;;;;;;;5050225;28;20096;-58
2023/12/30 05:19:41;;;;;;;8.10;4.85;;;;;;;;;;5048652;28;20363;-59
2023/12/30 05:22:07;;;;;;;8.75;4.72;;;;;;;;;;5048018;28;20175;-56
2023/12/30 05:24:33;;;;;;;7.05;4.10;;;;;;;;;;5048483;28;20032;-57
2023/12/30 05:26:59;;;;;;;8.70;4.95;;;;;;;;;;5049724;28;20126;-57
2023/12/30 05:29:25;;;;;;;10.70;5.15;;;;;;;;;;5049941;28;20037;-58
2023/12/30 05:31:51;;;;;;;6.90;4.10;;;;;;;;;;5049762;28;20032;-58
2023/12/30 05:34:17;;;;;;;7.60;4.40;;;;;;;;;;5050328;28;20105;-58
2023/12/30 05:36:43;;;;;;;7.03;4.20;;;;;;;;;;5049744;28;20411;-57
2023/12/30 05:39:09;;;;;;;14.30;6.60;;;;;;;;;;5050508;28;20079;-56
2023/12/30 05:41:35;;;;;;;7.10;4.20;;;;;;;;;;5050407;28;20109;-59
2023/12/30 05:44:01;;;;;;;9.18;4.82;;;;;;;;;;5050220;28;20032;-61
2023/12/30 05:46:27;;;;;;;9.18;4.72;;;;;;;;;;5050218;28;20107;-57
2023/12/30 05:48:53;;;;;;;7.70;4.53;;;;;;;;;;5050701;28;20517;-54
2023/12/30 05:51:19;;;;;;;7.35;4.35;;;;;;;;;;5050612;28;20029;-58
2023/12/30 05:53:45;;;;;;;6.72;4.00;;;;;;;;;;5050072;28;20108;-57
2023/12/30 05:56:11;;;;;;;11.82;5.63;;;;;;;;;;5049823;28;20029;-56
2023/12/30 05:58:37;;;;;;;17.35;4.75;;;;;;;;;;5050025;28;20049;-52
2023/12/30 06:01:04;;;;;;;8.25;4.70;;;;;;;;;;5052108;28;20020;-57
2023/12/30 06:03:30;;;;;;;6.88;4.07;;;;;;;;;;5053474;28;20226;-55
2023/12/30 06:05:56;;;;;;;6.90;4.00;;;;;;;;;;5053511;28;20029;-58
2023/12/30 06:08:22;;;;;;;9.75;4.90;;;;;;;;;;5052576;28;20021;-52
2023/12/30 06:10:51;;;;;;;9.77;6.15;;;;;;;;;;5054250;28;20032;-56
2023/12/30 06:13:17;;;;;;;7.00;4.18;;;;;;;;;;5052432;28;20017;-56
2023/12/30 06:15:48;;;;;;;7.00;4.15;;;;;;;;;;5053488;28;20108;-58
2023/12/30 06:18:14;;;;;;;8.32;4.68;;;;;;;;;;5051760;28;20029;-58
2023/12/30 06:20:40;;;;;;;14.85;5.60;;;;;;;;;;5053472;28;20044;-57
2023/12/30 06:23:06;;;;;;;9.05;5.28;;;;;;;;;;5052507;28;20078;-58
2023/12/30 06:25:32;;;;;;;8.80;5.28;;;;;;;;;;5053119;28;20071;-56
2023/12/30 06:27:58;;;;;;;7.35;4.30;;;;;;;;;;5053177;28;20111;-59
2023/12/30 06:30:24;;;;;;;6.90;4.10;;;;;;;;;;5052971;28;20033;-57
2023/12/30 06:32:51;;;;;;;7.82;5.07;;;;;;;;;;5053682;28;20025;-59
2023/12/30 06:35:17;;;;;;;7.53;4.43;;;;;;;;;;5053235;28;20025;-58
2023/12/30 06:37:43;;;;;;;7.97;4.65;;;;;;;;;;5052248;28;20479;-59
2023/12/30 06:40:09;;;;;;;8.23;4.60;;;;;;;;;;5053341;28;20027;-54
2023/12/30 06:42:35;;;;;;;12.77;4.32;;;;;;;;;;5047069;28;20108;-57
2023/12/30 06:45:01;;;;;;;13.85;4.85;;;;;;;;;;5029423;28;20089;-57
2023/12/30 06:47:27;;;;;;;9.25;5.03;;;;;;;;;;5035006;28;20032;-57
2023/12/30 06:49:53;;;;;;;9.27;5.45;;;;;;;;;;5052533;28;20021;-59
2023/12/30 06:52:19;;;;;;;7.00;4.10;;;;;;;;;;5034875;28;20071;-56
2023/12/30 06:54:45;;;;;;;6.68;3.90;;;;;;;;;;5032454;28;20018;-54
2023/12/30 06:57:11;;;;;;;8.55;4.32;;;;;;;;;;5032662;28;20021;-59
2023/12/30 06:59:37;;;;;;;6.82;4.07;;;;;;;;;;5037924;28;20056;-56
2023/12/30 07:02:03;;;;;;;6.90;4.10;;;;;;;;;;5051000;28;20064;-54
2023/12/30 07:04:29;;;;;;;6.53;3.90;;;;;;;;;;5045600;28;20033;-57
2023/12/30 07:06:55;;;;;;;8.50;4.80;;;;;;;;;;5030836;28;20040;-53
2023/12/30 07:09:21;;;;;;;6.70;3.97;;;;;;;;;;5031789;28;20036;-55
2023/12/30 07:11:47;;;;;;;25.40;5.50;;;;;;;;;;5031458;28;20045;-55
2023/12/30 07:14:14;;;;;;;6.93;4.10;;;;;;;;;;5032438;28;20104;-59
2023/12/30 07:16:40;;;;;;;6.50;3.90;;;;;;;;;;5033315;28;20025;-59
2023/12/30 07:19:06;;;;;;;6.80;4.00;;;;;;;;;;5032018;28;20107;-59
2023/12/30 07:21:32;;;;;;;6.60;3.90;;;;;;;;;;5031659;28;20037;-57
2023/12/30 07:23:58;;;;;;;6.50;3.83;;;;;;;;;;5038493;28;20033;-59
2023/12/30 07:26:24;;;;;;;6.45;3.85;;;;;;;;;;5033206;28;20040;-56
2023/12/30 07:28:50;;;;;;;6.20;3.70;;;;;;;;;;5031883;28;20049;-57
2023/12/30 07:31:16;;;;;;;6.78;4.00;;;;;;;;;;5031501;28;20017;-59
2023/12/30 07:33:42;;;;;;;7.20;4.10;;;;;;;;;;5030048;28;20028;-58
2023/12/30 07:36:08;;;;;;;6.80;4.00;;;;;;;;;;5030307;28;20029;-58
2023/12/30 07:38:34;;;;;;;8.45;4.20;;;;;;;;;;5022257;28;20075;-57
2023/12/30 07:41:00;;;;;;;6.70;3.90;;;;;;;;;;5030892;28;20120;-57
2023/12/30 07:43:26;;;;;;;7.28;4.07;;;;;;;;;;5039687;28;20057;-58
2023/12/30 07:45:52;;;;;;;9.40;5.43;;;;;;;;;;5046227;28;20025;-54
2023/12/30 07:48:18;;;;;;;7.35;4.15;;;;;;;;;;5050434;28;20680;-57
2023/12/30 07:50:44;;;;;;;6.70;4.00;;;;;;;;;;5052496;28;20021;-53
2023/12/30 07:53:10;;;;;;;8.88;4.15;;;;;;;;;;5051137;28;20029;-55
2023/12/30 07:55:36;;;;;;;8.02;4.72;;;;;;;;;;5035218;28;20021;-59
2023/12/30 07:58:03;;;;;;;7.97;4.38;;;;;;;;;;5031929;28;20505;-56
2023/12/30 08:00:28;;;;;;;6.80;3.97;;;;;;;;;;5030255;28;20040;-57
2023/12/30 08:02:54;;;;;;;7.28;4.32;;;;;;;;;;5031784;28;20511;-56
2023/12/30 08:05:20;;;;;;;6.65;3.92;;;;;;;;;;5031891;28;20037;-59
2023/12/30 08:07:46;;;;;;;6.78;4.00;;;;;;;;;;5031711;28;20177;-56
2023/12/30 08:10:12;;;;;;;7.50;4.35;;;;;;;;;;5031774;28;20100;-58
2023/12/30 08:12:39;;;;;;;7.65;4.65;;;;;;;;;;5030493;28;20018;-60
2023/12/30 08:15:05;;;;;;;8.02;5.00;;;;;;;;;;5032231;28;20383;-61
2023/12/30 08:17:31;;;;;;;13.23;6.40;;;;;;;;;;5032454;28;20096;-59
2023/12/30 08:19:57;;;;;;;10.07;5.40;;;;;;;;;;5043970;28;20094;-56
2023/12/30 08:22:23;;;;;;;7.60;4.40;;;;;;;;;;5030775;28;20129;-57
2023/12/30 08:24:51;;;;;;;14.38;5.53;;;;;;;;;;5030134;28;20057;-57
2023/12/30 08:27:17;;;;;;;6.80;4.07;;;;;;;;;;5030289;28;20072;-58
2023/12/30 08:29:43;;;;;;;8.57;5.00;;;;;;;;;;5030642;28;20091;-57
2023/12/30 08:32:09;;;;;;;7.10;4.25;;;;;;;;;;5029660;28;20026;-57
2023/12/30 08:34:35;;;;;;;7.65;4.53;;;;;;;;;;5031207;28;20025;-58
2023/12/30 08:37:08;;;;;;;8.07;4.70;;;;;;;;;;5039214;28;20052;-60
2023/12/30 08:39:34;;;;;;;10.80;5.50;;;;;;;;;;5030895;28;20391;-58
2023/12/30 08:42:00;;;;;;;8.55;5.43;;;;;;;;;;5031318;28;20032;-58
2023/12/30 08:44:26;;;;;;;10.07;5.50;;;;;;;;;;5030859;28;20049;-55
2023/12/30 08:46:52;;;;;;;8.00;4.80;;;;;;;;;;5030911;28;20037;-56
2023/12/30 08:49:18;;;;;;;10.90;5.80;;;;;;;;;;5028776;28;20724;-57
2023/12/30 08:51:44;;;;;;;12.60;7.35;;;;;;;;;;5030845;28;20078;-58
2023/12/30 08:54:10;;;;;;;10.88;5.60;;;;;;;;;;5028821;28;20093;-58
2023/12/30 08:56:37;;;;;;;9.20;6.05;;;;;;;;;;5029105;28;20022;-54
2023/12/30 08:59:03;;;;;;;8.70;5.00;;;;;;;;;;5028569;28;20025;-57
2023/12/30 09:01:29;;;;;;;13.70;5.60;;;;;;;;;;5029093;28;20037;-57
2023/12/30 09:03:55;;;;;;;8.13;4.85;;;;;;;;;;5028609;28;20025;-52
2023/12/30 09:06:21;;;;;;;7.85;4.70;;;;;;;;;;5027039;28;20029;-51
2023/12/30 09:08:47;;;;;;;8.32;4.93;;;;;;;;;;5028514;28;20026;-53
2023/12/30 09:11:23;;;;;;;7.90;4.68;;;;;;;;;;5028226;28;20029;-54
2023/12/30 09:13:51;;;;;;;9.10;5.00;;;;;;;;;;5036725;28;20025;-52
2023/12/30 09:16:17;;;;;;;9.80;5.40;;;;;;;;;;5046290;28;20069;-54
2023/12/30 09:18:43;;;;;;;8.20;4.90;;;;;;;;;;5029686;28;20029;-53
2023/12/30 09:21:09;;;;;;;7.65;4.57;;;;;;;;;;5026743;28;20061;-53
2023/12/30 09:23:35;;;;;;;8.00;4.78;;;;;;;;;;5028666;28;20033;-55
2023/12/30 09:26:01;;;;;;;8.50;5.00;;;;;;;;;;5028547;28;20026;-58
2023/12/30 09:28:27;;;;;;;7.97;4.80;;;;;;;;;;5028600;28;20095;-57
2023/12/30 09:30:53;;;;;;;8.30;5.00;;;;;;;;;;5028423;28;20033;-55
2023/12/30 09:33:19;;;;;;;7.90;4.70;;;;;;;;;;5028459;28;20026;-55
2023/12/30 09:35:45;;;;;;;8.23;4.85;;;;;;;;;;5031085;28;20602;-56
2023/12/30 09:38:12;;;;;;;8.27;4.93;;;;;;;;;;5031376;28;20032;-56
2023/12/30 09:40:38;;;;;;;9.38;5.57;;;;;;;;;;5032299;28;20040;-57
2023/12/30 09:43:05;;;;;;;10.80;4.90;;;;;;;;;;5031889;28;20025;-51
2023/12/30 09:45:34;;;;;;;7.95;4.72;;;;;;;;;;5031596;28;20040;-56
2023/12/30 09:48:00;;;;;;;7.80;4.65;;;;;;;;;;5030678;28;20025;-53
2023/12/30 09:50:27;;;;;;;7.90;4.53;;;;;;;;;;5031586;28;20036;-51
2023/12/30 09:52:53;;;;;;;9.43;5.85;;;;;;;;;;5030827;28;20029;-55
2023/12/30 09:55:19;;;;;;;7.35;4.40;;;;;;;;;;5030405;28;20047;-53
2023/12/30 09:57:46;;;;;;;8.93;5.10;;;;;;;;;;5029144;28;20066;-51
2023/12/30 10:00:15;;;;;;;7.82;4.65;;;;;;;;;;5030362;28;20028;-53
2023/12/30 10:02:42;;;;;;;8.25;4.75;;;;;;;;;;5028638;28;20049;-53
2023/12/30 10:05:08;;;;;;;8.75;5.20;;;;;;;;;;5029992;28;20032;-53
2023/12/30 10:07:34;;;;;;;12.52;5.38;;;;;;;;;;5029215;28;20025;-53
2023/12/30 10:10:00;;;;;;;9.00;5.22;;;;;;;;;;5030616;28;20341;-51
2023/12/30 10:12:26;;;;;;;8.30;4.88;;;;;;;;;;5031572;28;20076;-55
2023/12/30 10:14:52;;;;;;;8.88;5.10;;;;;;;;;;5031759;28;20476;-56
2023/12/30 10:17:19;;;;;;;10.38;5.63;;;;;;;;;;5031617;28;20068;-51
2023/12/30 10:19:45;;;;;;;8.25;4.80;;;;;;;;;;5031456;28;20075;-54
2023/12/30 10:22:11;;;;;;;8.50;5.10;;;;;;;;;;5031403;28;20471;-53
2023/12/30 10:24:37;;;;;;;8.40;5.00;;;;;;;;;;5029848;28;20026;-51
2023/12/30 10:27:04;;;;;;;8.93;5.22;;;;;;;;;;5031742;28;20033;-52
2023/12/30 10:29:33;;;;;;;10.80;6.35;;;;;;;;;;5031479;28;20438;-55
2023/12/30 10:32:00;;;;;;;10.48;5.60;;;;;;;;;;5029981;28;20021;-52
2023/12/30 10:34:30;;;;;;;12.05;5.35;;;;;;;;;;5031630;28;20104;-51
2023/12/30 10:36:56;;;;;;;8.77;4.90;;;;;;;;;;5031417;28;20523;-52
2023/12/30 10:39:23;;;;;;;11.10;5.18;;;;;;;;;;5031448;28;20036;-52
2023/12/30 10:41:49;;;;;;;9.98;5.25;;;;;;;;;;5031232;28;20216;-54
2023/12/30 10:44:15;;;;;;;8.40;4.93;;;;;;;;;;5031077;28;20112;-54
2023/12/30 10:46:41;;;;;;;7.32;4.40;;;;;;;;;;5030635;28;20065;-56
2023/12/30 10:49:11;;;;;;;9.65;5.60;;;;;;;;;;5031006;28;20022;-54
2023/12/30 10:51:39;;;;;;;8.82;5.38;;;;;;;;;;5031044;28;20032;-51
2023/12/30 10:54:11;;;;;;;8.30;4.90;;;;;;;;;;5031133;28;20022;-52
2023/12/30 10:56:44;;;;;;;7.25;4.32;;;;;;;;;;5031413;28;20045;-52
2023/12/30 10:59:12;;;;;;;11.02;5.50;;;;;;;;;;5031020;28;20068;-53
2023/12/30 11:01:38;;;;;;;7.30;4.32;;;;;;;;;;5030822;28;20036;-54
2023/12/30 11:04:12;;;;;;;8.70;5.50;;;;;;;;;;5030888;28;20492;-52
2023/12/30 11:06:54;;;;;;;10.82;5.60;;;;;;;;;;5030583;28;20032;-52
2023/12/30 11:09:24;;;;;;;7.70;4.60;;;;;;;;;;5030529;28;20056;-53
2023/12/30 11:11:52;;;;;;;8.20;4.80;;;;;;;;;;5030481;28;20032;-53
2023/12/30 11:14:18;;;;;;;8.38;4.97;;;;;;;;;;5030672;28;20483;-52
2023/12/30 11:16:44;;;;;;;8.82;4.90;;;;;;;;;;5030656;28;20026;-55
2023/12/30 11:19:10;;;;;;;8.10;4.78;;;;;;;;;;5030619;28;20033;-54
2023/12/30 11:21:37;;;;;;;7.90;4.70;;;;;;;;;;5030134;28;20029;-52
2023/12/30 11:24:05;;;;;;;8.70;5.20;;;;;;;;;;5030355;28;20049;-52
2023/12/30 11:26:31;;;;;;;8.27;4.80;;;;;;;;;;5030414;28;20036;-54
2023/12/30 11:29:01;;;;;;;8.15;4.90;;;;;;;;;;5030426;28;20103;-56
2023/12/30 11:31:47;;;;;;;10.35;5.28;;;;;;;;;;5029870;28;20048;-54
2023/12/30 11:34:15;;;;;;;8.25;4.75;;;;;;;;;;5030165;28;20035;-52
2023/12/30 11:36:41;;;;;;;12.20;6.55;;;;;;;;;;5030092;28;20387;-53
2023/12/30 11:39:08;;;;;;;10.07;5.35;;;;;;;;;;5030375;28;20470;-53
2023/12/30 11:41:34;;;;;;;8.38;5.07;;;;;;;;;;5026200;28;20072;-54
2023/12/30 11:44:05;;;;;;;9.75;5.40;;;;;;;;;;5033736;28;20051;-54
2023/12/30 11:46:32;;;;;;;9.90;5.25;;;;;;;;;;5037744;28;20034;-54
2023/12/30 11:48:58;;;;;;;10.35;5.88;;;;;;;;;;5027384;28;20399;-54
2023/12/30 11:51:24;;;;;;;8.40;5.07;;;;;;;;;;5029922;28;20028;-51
2023/12/30 11:53:51;;;;;;;10.43;5.63;;;;;;;;;;5029988;28;20052;-50
2023/12/30 11:56:17;;;;;;;8.27;4.90;;;;;;;;;;5029592;28;20079;-53
2023/12/30 11:58:44;;;;;;;9.02;5.47;;;;;;;;;;5027468;28;20032;-54
2023/12/30 12:01:10;;;;;;;8.25;4.88;;;;;;;;;;5029422;28;20026;-49
2023/12/30 12:03:36;;;;;;;7.47;4.50;;;;;;;;;;5029737;28;20025;-53
2023/12/30 12:06:02;;;;;;;8.40;5.00;;;;;;;;;;5028183;28;20625;-54
2023/12/30 12:08:29;;;;;;;8.98;5.13;;;;;;;;;;5028661;28;20033;-54
2023/12/30 12:10:55;;;;;;;11.18;5.68;;;;;;;;;;5035173;28;20025;-52
2023/12/30 12:13:21;;;;;;;9.45;4.90;;;;;;;;;;5041101;28;20061;-51
2023/12/30 12:15:50;;;;;;;8.35;4.90;;;;;;;;;;5049151;28;20021;-57
2023/12/30 12:18:17;;;;;;;16.08;6.78;;;;;;;;;;5049554;28;20021;-55
2023/12/30 12:20:43;;;;;;;9.65;5.65;;;;;;;;;;5049438;28;20526;-55
2023/12/30 12:23:09;;;;;;;8.70;5.20;;;;;;;;;;5048113;28;20124;-55
2023/12/30 12:25:36;;;;;;;8.57;5.10;;;;;;;;;;5049565;28;20647;-54
2023/12/30 12:28:06;;;;;;;8.90;5.20;;;;;;;;;;5047920;28;20033;-55
2023/12/30 12:30:32;;;;;;;8.30;4.90;;;;;;;;;;5049511;28;20021;-54
2023/12/30 12:32:58;;;;;;;7.82;4.65;;;;;;;;;;5048993;28;20025;-55
2023/12/30 12:35:24;;;;;;;8.23;4.88;;;;;;;;;;5049110;28;20047;-54
2023/12/30 12:37:50;;;;;;;8.68;5.05;;;;;;;;;;5049147;28;20045;-55
2023/12/30 12:40:16;;;;;;;8.77;5.10;;;;;;;;;;5049483;28;20056;-54
2023/12/30 12:42:42;;;;;;;9.18;5.45;;;;;;;;;;5049005;28;20413;-54
2023/12/30 12:47:37;;;;;;;8.27;4.90;;;;;;;;;;5027741;28;20053;-51
2023/12/30 12:50:04;;;;;;;8.43;4.97;;;;;;;;;;5030221;28;20064;-49
2023/12/30 12:52:30;;;;;;;8.30;5.00;;;;;;;;;;5029871;28;20479;-48
2023/12/30 12:54:56;;;;;;;9.35;5.35;;;;;;;;;;5030494;28;20460;-49
2023/12/30 12:57:23;;;;;;;12.77;7.20;;;;;;;;;;5025621;28;20103;-50
2023/12/30 12:59:49;;;;;;;22.40;5.82;;;;;;;;;;5025746;28;20026;-47
2023/12/30 13:02:16;;;;;;;7.35;4.38;;;;;;;;;;5010391;28;20057;-47
2023/12/30 13:04:42;;;;;;;10.70;6.13;;;;;;;;;;5010950;28;20037;-49
2023/12/30 13:07:08;;;;;;;8.63;4.95;;;;;;;;;;5011077;28;20049;-49
2023/12/30 13:09:36;;;;;;;8.25;4.97;;;;;;;;;;5010784;28;20530;-46
2023/12/30 13:12:02;;;;;;;7.75;4.60;;;;;;;;;;5010832;28;20025;-45
2023/12/30 13:14:28;;;;;;;13.23;6.45;;;;;;;;;;5025352;28;20113;-50
2023/12/30 13:16:55;;;;;;;7.60;4.53;;;;;;;;;;5009005;28;20022;-50
2023/12/30 13:19:21;;;;;;;8.23;4.88;;;;;;;;;;5023615;28;20026;-47
2023/12/30 13:21:48;;;;;;;7.97;4.75;;;;;;;;;;5009534;28;20029;-48
2023/12/30 13:24:14;;;;;;;8.98;5.45;;;;;;;;;;5009713;28;20050;-50
2023/12/30 13:26:40;;;;;;;8.18;4.88;;;;;;;;;;5009639;28;20030;-50
2023/12/30 13:29:06;;;;;;;7.80;4.65;;;;;;;;;;5021753;28;20488;-47
2023/12/30 13:31:34;;;;;;;7.38;4.40;;;;;;;;;;4678318;28;10000758;-48
2023/12/30 13:34:00;;;;;;;7.45;4.45;;;;;;;;;;5025568;28;20027;-46
2023/12/30 13:36:29;;;;;;;10.00;5.45;;;;;;;;;;5026736;28;20061;-50
2023/12/30 13:39:05;;;;;;;8.10;4.80;;;;;;;;;;5032129;28;20026;-47
2023/12/30 13:41:31;;;;;;;8.30;4.90;;;;;;;;;;5007480;28;20034;-52
2023/12/30 13:43:58;;;;;;;8.43;4.95;;;;;;;;;;5008070;28;20030;-49
2023/12/30 13:51:38;;;;;;;8.68;5.22;;;;;;;;;;5006841;28;20125;-49
2023/12/30 13:54:04;;;;;;;8.70;5.10;;;;;;;;;;5019410;28;20112;-50
2023/12/30 13:56:35;;;;;;;7.95;4.80;;;;;;;;;;5006346;28;20041;-50
2023/12/30 13:59:07;;;;;;;7.53;4.50;;;;;;;;;;5007329;28;20763;-54
2023/12/30 14:01:34;;;;;;;8.10;4.80;;;;;;;;;;5014577;28;20113;-46
2023/12/30 14:04:02;;;;;;;8.20;4.80;;;;;;;;;;5011186;28;20095;-48
2023/12/30 14:06:33;;;;;;;7.97;4.80;;;;;;;;;;5010025;28;20041;-53
2023/12/30 14:09:15;;;;;;;8.60;5.10;;;;;;;;;;5029553;28;20038;-49
2023/12/30 14:11:47;;;;;;;7.97;4.75;;;;;;;;;;5013822;28;20738;-49
2023/12/30 14:14:13;;;;;;;8.27;4.90;;;;;;;;;;5010838;28;20022;-53
2023/12/30 14:16:39;;;;;;;8.10;4.82;;;;;;;;;;5014686;28;20101;-54
2023/12/30 14:19:05;;;;;;;7.95;4.70;;;;;;;;;;5016760;28;20033;-52
2023/12/30 14:21:31;;;;;;;8.05;4.75;;;;;;;;;;5009079;28;20026;-50
2023/12/30 14:23:57;;;;;;;8.20;4.88;;;;;;;;;;5010158;28;20069;-46
2023/12/30 14:26:23;;;;;;;8.13;4.80;;;;;;;;;;5009787;28;20122;-49
2023/12/30 14:28:49;;;;;;;8.43;4.95;;;;;;;;;;5014878;28;20068;-48
2023/12/30 14:31:15;;;;;;;10.07;5.80;;;;;;;;;;5015754;28;20174;-51
2023/12/30 14:33:42;;;;;;;7.00;4.20;;;;;;;;;;5033469;28;20096;-48
2023/12/30 14:36:08;;;;;;;9.52;6.95;;;;;;;;;;5042062;28;20133;-50
2023/12/30 14:38:34;;;;;;;9.35;6.70;;;;;;;;;;5010083;28;20626;-50
2023/12/30 14:41:00;;;;;;;7.00;4.18;;;;;;;;;;5010037;28;20042;-53